createdAt,value
2019-04-16T00:00:50.464Z,52.0
2019-04-16T00:02:52.530Z,51.8
2019-04-16T00:04:50.058Z,51.7
2019-04-16T00:06:50.245Z,54.0
2019-04-16T00:08:50.421Z,54.8
2019-04-16T00:10:50.427Z,54.4
2019-04-16T00:12:50.498Z,54.3
2019-04-16T00:14:50.549Z,53.5
2019-04-16T00:16:50.659Z,53.6
2019-04-16T00:19:06.930Z,53.6
2019-04-16T00:20:50.685Z,52.4
2019-04-16T00:22:49.829Z,53.1
2019-04-16T00:24:49.839Z,52.9
2019-04-16T00:26:50.054Z,53.9
2019-04-16T00:28:50.088Z,53.0
2019-04-16T00:30:50.204Z,53.5
2019-04-16T00:32:50.232Z,52.8
2019-04-16T00:34:50.588Z,52.0
2019-04-16T00:36:50.761Z,52.5
2019-04-16T00:38:55.289Z,52.8
2019-04-16T00:40:50.417Z,53.2
2019-04-16T00:42:50.410Z,52.6
2019-04-16T00:44:50.487Z,52.5
2019-04-16T00:46:50.670Z,52.5
2019-04-16T00:48:50.748Z,54.4
2019-04-16T00:50:50.646Z,54.5
2019-04-16T00:52:50.765Z,54.0
2019-04-16T00:54:49.798Z,53.1
2019-04-16T00:56:50.079Z,53.4
2019-04-16T00:58:53.446Z,52.6
2019-04-16T01:00:50.474Z,52.9
2019-04-16T01:02:50.498Z,53.8
2019-04-16T01:04:50.023Z,53.5
2019-04-16T01:06:50.258Z,53.7
2019-04-16T01:08:55.656Z,55.5
2019-04-16T01:10:50.785Z,55.4
2019-04-16T01:12:49.943Z,56.0
2019-04-16T01:14:49.869Z,55.2
2019-04-16T01:16:50.175Z,53.8
2019-04-16T01:18:50.354Z,54.9
2019-04-16T01:20:50.521Z,55.0
2019-04-16T01:22:50.712Z,55.0
2019-04-16T01:24:52.981Z,55.0
2019-04-16T01:26:50.412Z,56.6
2019-04-16T01:28:50.551Z,55.2
2019-04-16T01:30:50.641Z,54.5
2019-04-16T01:32:50.683Z,54.7
2019-04-16T01:34:50.760Z,54.5
2019-04-16T01:36:55.217Z,54.6
2019-04-16T01:38:50.254Z,54.2
2019-04-16T01:40:51.259Z,54.3
2019-04-16T01:42:55.587Z,55.0
2019-04-16T01:44:50.585Z,55.6
2019-04-16T01:46:49.858Z,56.2
2019-04-16T01:48:49.814Z,56.0
2019-04-16T01:50:49.850Z,55.9
2019-04-16T01:52:50.874Z,55.2
2019-04-16T01:54:55.907Z,56.2
2019-04-16T01:56:50.087Z,57.2
2019-04-16T01:58:50.120Z,56.2
2019-04-16T02:00:50.247Z,56.5
2019-04-16T02:02:50.295Z,57.4
2019-04-16T02:04:53.126Z,56.9
2019-04-16T02:06:50.297Z,57.5
2019-04-16T02:08:49.862Z,59.0
2019-04-16T02:10:49.842Z,57.3
2019-04-16T02:12:50.003Z,56.9
2019-04-16T02:14:51.477Z,57.4
2019-04-16T02:16:50.594Z,56.7
2019-04-16T02:18:50.714Z,57.7
2019-04-16T02:20:49.763Z,58.1
2019-04-16T02:22:49.796Z,59.7
2019-04-16T02:24:49.858Z,58.9
2019-04-16T02:26:55.798Z,59.2
2019-04-16T02:28:49.945Z,59.4
2019-04-16T02:30:49.983Z,64.4
2019-04-16T02:32:50.270Z,62.6
2019-04-16T02:34:50.784Z,62.2
2019-04-16T02:36:50.089Z,63.0
2019-04-16T02:38:54.074Z,63.5
2019-04-16T02:40:53.755Z,63.6
2019-04-16T02:42:50.766Z,63.6
2019-04-16T02:44:50.814Z,60.4
2019-04-16T02:46:50.159Z,60.1
2019-04-16T02:48:52.133Z,60.0
2019-04-16T02:50:50.245Z,59.9
2019-04-16T02:52:52.986Z,59.8
2019-04-16T02:54:49.991Z,59.4
2019-04-16T02:56:53.408Z,59.7
2019-04-16T02:58:50.538Z,59.6
2019-04-16T03:00:51.161Z,60.1
2019-04-16T03:02:54.851Z,60.0
2019-04-16T03:04:49.836Z,60.3
2019-04-16T03:06:50.041Z,60.8
2019-04-16T03:08:50.120Z,61.9
2019-04-16T03:10:50.260Z,63.6
2019-04-16T03:12:53.250Z,64.5
2019-04-16T03:14:50.355Z,63.5
2019-04-16T03:16:50.594Z,63.6
2019-04-16T03:18:50.729Z,63.8
2019-04-16T03:20:56.931Z,64.0
2019-04-16T03:22:50.055Z,64.6
2019-04-16T03:24:50.053Z,65.5
2019-04-16T03:26:51.591Z,69.3
2019-04-16T03:28:50.648Z,69.2
2019-04-16T03:30:50.684Z,70.8
2019-04-16T03:32:49.948Z,69.7
2019-04-16T03:34:54.387Z,70.5
2019-04-16T03:36:50.519Z,68.9
2019-04-16T03:38:50.603Z,68.3
2019-04-16T03:40:55.844Z,69.2
2019-04-16T03:42:50.021Z,69.2
2019-04-16T03:44:50.120Z,69.8
2019-04-16T03:46:50.230Z,69.0
2019-04-16T03:48:56.721Z,69.7
2019-04-16T03:50:50.685Z,70.7
2019-04-16T03:52:50.760Z,72.0
2019-04-16T03:54:54.970Z,68.3
2019-04-16T03:56:50.237Z,69.3
2019-04-16T03:58:50.342Z,69.2
2019-04-16T04:00:50.442Z,68.8
2019-04-16T04:02:55.692Z,68.3
2019-04-16T04:04:50.027Z,68.9
2019-04-16T04:06:50.181Z,69.8
2019-04-16T04:08:53.670Z,70.8
2019-04-16T04:10:50.652Z,71.5
2019-04-16T04:12:50.745Z,72.4
2019-04-16T04:14:55.397Z,72.4
2019-04-16T04:16:50.600Z,72.4
2019-04-16T04:18:50.686Z,72.4
2019-04-16T04:20:51.336Z,72.0
2019-04-16T04:22:50.341Z,71.5
2019-04-16T04:24:50.364Z,72.1
2019-04-16T04:26:49.945Z,72.2
2019-04-16T04:28:52.949Z,72.8
2019-04-16T04:30:49.995Z,73.3
2019-04-16T04:32:49.979Z,72.5
2019-04-16T04:34:50.664Z,72.2
2019-04-16T04:36:49.982Z,72.8
2019-04-16T04:38:50.063Z,72.6
2019-04-16T04:40:51.985Z,72.7
2019-04-16T04:42:50.004Z,72.8
2019-04-16T04:44:50.134Z,73.9
2019-04-16T04:46:50.308Z,74.1
2019-04-16T04:49:00.609Z,72.9
2019-04-16T04:50:50.600Z,75.1
2019-04-16T04:52:50.610Z,75.7
2019-04-16T04:54:55.144Z,73.4
2019-04-16T04:56:50.297Z,74.0
2019-04-16T04:58:50.335Z,73.1
2019-04-16T05:00:50.370Z,72.8
2019-04-16T05:02:50.523Z,71.5
2019-04-16T05:04:53.512Z,71.3
2019-04-16T05:06:50.706Z,71.5
2019-04-16T05:08:49.767Z,71.5
2019-04-16T05:11:03.385Z,71.2
2019-04-16T05:12:54.088Z,71.9
2019-04-16T05:14:50.208Z,71.9
2019-04-16T05:16:50.427Z,71.2
2019-04-16T05:18:50.510Z,71.3
2019-04-16T05:20:50.618Z,72.1
2019-04-16T05:22:58.284Z,72.5
2019-04-16T05:24:50.380Z,71.0
2019-04-16T05:26:50.615Z,71.3
2019-04-16T05:28:50.708Z,71.7
2019-04-16T05:30:53.509Z,72.3
2019-04-16T05:32:50.519Z,71.1
2019-04-16T05:34:49.971Z,70.6
2019-04-16T05:36:50.537Z,69.3
2019-04-16T05:38:56.379Z,68.9
2019-04-16T05:40:50.601Z,68.2
2019-04-16T05:42:59.749Z,66.3
2019-04-16T05:44:49.839Z,64.5
2019-04-16T05:46:50.058Z,55
2019-04-16T05:48:54.905Z,55
2019-04-16T05:50:49.982Z,55
2019-04-16T05:52:50.119Z,55
2019-04-16T05:54:50.183Z,55
2019-04-16T05:56:55.889Z,55
2019-04-16T05:58:49.891Z,55
2019-04-16T06:00:49.967Z,55
2019-04-16T06:02:51.168Z,55
2019-04-16T06:04:55.307Z,55
2019-04-16T06:06:49.906Z,55
2019-04-16T06:08:50.033Z,55
2019-04-16T06:10:51.557Z,55
2019-04-16T06:12:50.672Z,55
2019-04-16T06:14:54.382Z,55
2019-04-16T06:16:57.479Z,55
2019-04-16T06:18:50.668Z,55
2019-04-16T06:20:54.111Z,55
2019-04-16T06:22:50.163Z,54
2019-04-16T06:24:50.407Z,55
2019-04-16T06:26:50.592Z,55
2019-04-16T06:29:00.506Z,55
2019-04-16T06:30:50.539Z,54
2019-04-16T06:32:50.606Z,54
2019-04-16T06:34:49.925Z,54
2019-04-16T06:36:50.378Z,54
2019-04-16T06:38:50.357Z,53
2019-04-16T06:40:50.551Z,53
2019-04-16T06:42:55.074Z,53
2019-04-16T06:44:50.041Z,52
2019-04-16T06:46:50.217Z,53
2019-04-16T06:48:50.302Z,53
2019-04-16T06:50:50.376Z,53
2019-04-16T06:52:50.534Z,52
2019-04-16T06:54:50.634Z,52
2019-04-16T06:56:50.859Z,52
2019-04-16T06:58:58.347Z,52
2019-04-16T07:00:50.391Z,52
2019-04-16T07:03:03.278Z,52
2019-04-16T07:04:50.123Z,52
2019-04-16T07:06:50.453Z,52
2019-04-16T07:08:51.189Z,51
2019-04-16T07:10:50.320Z,51
2019-04-16T07:12:51.027Z,51
2019-04-16T07:14:50.156Z,51
2019-04-16T07:16:50.344Z,51
2019-04-16T07:18:50.392Z,51
2019-04-16T07:20:50.463Z,50
2019-04-16T07:22:53.885Z,50
2019-04-16T07:24:50.269Z,49
2019-04-16T07:26:50.631Z,49
2019-04-16T07:28:50.952Z,49
2019-04-16T07:30:50.442Z,48
2019-04-16T07:32:50.460Z,48
2019-04-16T07:34:49.876Z,49
2019-04-16T07:36:50.148Z,49
2019-04-16T07:38:50.285Z,47
2019-04-16T07:40:50.412Z,47
2019-04-16T07:42:59.509Z,47
2019-04-16T07:44:50.550Z,47
2019-04-16T07:46:49.849Z,47
2019-04-16T07:48:55.868Z,46
2019-04-16T07:50:53.426Z,46
2019-04-16T07:52:50.554Z,46
2019-04-16T07:54:49.878Z,46
2019-04-16T07:56:50.058Z,46
2019-04-16T07:58:50.048Z,45
2019-04-16T08:00:50.229Z,45
2019-04-16T08:02:54.978Z,45
2019-04-16T08:04:50.447Z,44
2019-04-16T08:06:50.626Z,44
2019-04-16T08:08:50.654Z,44
2019-04-16T08:10:50.648Z,44
2019-04-16T08:12:50.699Z,44
2019-04-16T08:14:50.700Z,44
2019-04-16T08:16:49.868Z,44
2019-04-16T08:18:49.836Z,44
2019-04-16T08:21:12.664Z,43
2019-04-16T08:22:50.527Z,43
2019-04-16T08:24:50.500Z,43
2019-04-16T08:26:50.746Z,42
2019-04-16T08:28:49.839Z,42
2019-04-16T08:30:49.822Z,42
2019-04-16T08:32:50.136Z,42
2019-04-16T08:34:50.548Z,42
2019-04-16T08:36:49.806Z,41
2019-04-16T08:38:49.812Z,42
2019-04-16T08:40:49.925Z,42
2019-04-16T08:42:50.025Z,42
2019-04-16T08:44:50.029Z,42
2019-04-16T08:46:50.200Z,41
2019-04-16T08:48:54.917Z,41
2019-04-16T08:50:49.985Z,41
2019-04-16T08:52:49.975Z,41
2019-04-16T08:54:55.309Z,41
2019-04-16T08:56:50.469Z,41
2019-04-16T08:58:50.449Z,40
2019-04-16T09:00:50.698Z,40
2019-04-16T09:02:50.690Z,40
2019-04-16T09:04:50.417Z,40
2019-04-16T09:06:50.558Z,40
2019-04-16T09:08:54.129Z,39
2019-04-16T09:10:50.648Z,40
2019-04-16T09:13:05.654Z,40
2019-04-16T09:14:56.829Z,40
2019-04-16T09:16:50.038Z,39
2019-04-16T09:18:50.044Z,39
2019-04-16T09:20:50.467Z,39
2019-04-16T09:22:59.346Z,39
2019-04-16T09:24:50.417Z,39
2019-04-16T09:26:57.128Z,39
2019-04-16T09:28:50.213Z,39
2019-04-16T09:30:51.040Z,39
2019-04-16T09:32:50.093Z,39
2019-04-16T09:34:50.423Z,39
2019-04-16T09:36:50.666Z,38
2019-04-16T09:38:50.678Z,38
2019-04-16T09:40:50.241Z,38
2019-04-16T09:42:49.991Z,38
2019-04-16T09:44:50.021Z,38
2019-04-16T09:46:52.842Z,38
2019-04-16T09:48:50.665Z,38
2019-04-16T09:50:50.721Z,38
2019-04-16T09:52:56.508Z,38
2019-04-16T09:54:50.626Z,38
2019-04-16T09:56:49.861Z,38
2019-04-16T09:58:49.832Z,38
2019-04-16T10:00:50.012Z,38
2019-04-16T10:02:50.087Z,38
2019-04-16T10:04:50.475Z,37
2019-04-16T10:06:50.684Z,37
2019-04-16T10:08:49.866Z,37
2019-04-16T10:10:49.959Z,36
2019-04-16T10:12:50.141Z,36
2019-04-16T10:14:50.207Z,36
2019-04-16T10:16:50.442Z,37
2019-04-16T10:18:50.502Z,36
2019-04-16T10:20:50.612Z,36
2019-04-16T10:22:50.763Z,36
2019-04-16T10:24:50.840Z,36
2019-04-16T10:26:50.605Z,36
2019-04-16T10:28:50.689Z,35
2019-04-16T10:30:50.810Z,35
2019-04-16T10:32:49.954Z,35
2019-04-16T10:34:50.466Z,27.0
2019-04-16T10:36:50.710Z,34
2019-04-16T10:38:49.894Z,34
2019-04-16T10:40:49.967Z,35
2019-04-16T10:42:49.998Z,35
2019-04-16T10:44:50.150Z,35
2019-04-16T10:46:50.769Z,35
2019-04-16T10:48:49.914Z,34
2019-04-16T10:50:49.997Z,35
2019-04-16T10:52:56.979Z,35
2019-04-16T10:54:50.217Z,35
2019-04-16T10:56:50.394Z,35
2019-04-16T10:58:50.478Z,34
2019-04-16T11:00:50.121Z,34
2019-04-16T11:02:50.263Z,34
2019-04-16T11:04:50.732Z,34
2019-04-16T11:06:50.835Z,34
2019-04-16T11:08:49.947Z,34
2019-04-16T11:10:50.138Z,34
2019-04-16T11:12:50.341Z,34
2019-04-16T11:14:50.385Z,34
2019-04-16T11:16:50.657Z,34
2019-04-16T11:18:50.846Z,34
2019-04-16T11:20:49.943Z,34
2019-04-16T11:22:50.128Z,34
2019-04-16T11:24:50.277Z,34
2019-04-16T11:26:50.501Z,33
2019-04-16T11:28:50.538Z,33
2019-04-16T11:30:50.622Z,33
2019-04-16T11:32:53.961Z,33
2019-04-16T11:34:50.544Z,33
2019-04-16T11:36:50.731Z,33
2019-04-16T11:38:49.893Z,33
2019-04-16T11:40:50.176Z,33
2019-04-16T11:42:50.362Z,33
2019-04-16T11:44:51.022Z,33
2019-04-16T11:46:50.483Z,33
2019-04-16T11:48:50.988Z,33
2019-04-16T11:50:50.130Z,33
2019-04-16T11:52:50.343Z,32
2019-04-16T11:54:50.645Z,32
2019-04-16T11:56:50.112Z,32
2019-04-16T11:58:50.568Z,32
2019-04-16T12:00:51.109Z,32
2019-04-16T12:02:50.382Z,32
2019-04-16T12:04:50.068Z,32
2019-04-16T12:06:50.507Z,32
2019-04-16T12:08:50.706Z,32
2019-04-16T12:10:51.154Z,32
2019-04-16T12:12:50.349Z,32
2019-04-16T12:14:50.620Z,32
2019-04-16T12:16:51.052Z,31
2019-04-16T12:18:50.227Z,31
2019-04-16T12:20:50.509Z,31
2019-04-16T12:22:50.062Z,31
2019-04-16T12:24:50.397Z,32
2019-04-16T12:26:50.772Z,31
2019-04-16T12:28:50.160Z,31
2019-04-16T12:30:50.663Z,30
2019-04-16T12:32:50.862Z,30
2019-04-16T12:34:52.142Z,30
2019-04-16T12:36:50.685Z,31
2019-04-16T12:38:50.856Z,31
2019-04-16T12:40:50.568Z,31
2019-04-16T12:42:50.981Z,31
2019-04-16T12:44:50.573Z,31
2019-04-16T12:46:51.009Z,30
2019-04-16T12:48:50.466Z,30
2019-04-16T12:50:50.721Z,30
2019-04-16T12:52:56.316Z,29
2019-04-16T12:54:50.697Z,30
2019-04-16T12:56:50.734Z,30
2019-04-16T12:58:51.845Z,30
2019-04-16T13:00:50.098Z,30
2019-04-16T13:02:49.914Z,30
2019-04-16T13:04:50.621Z,30
2019-04-16T13:06:50.423Z,30
2019-04-16T13:08:54.250Z,30
2019-04-16T13:10:50.434Z,29
2019-04-16T13:12:49.995Z,29
2019-04-16T13:15:02.827Z,29
2019-04-16T13:16:50.879Z,29
2019-04-16T13:18:50.033Z,30
2019-04-16T13:20:50.227Z,30
2019-04-16T13:22:50.085Z,30
2019-04-16T13:24:50.380Z,30
2019-04-16T13:26:50.869Z,30
2019-04-16T13:28:56.438Z,30
2019-04-16T13:30:50.663Z,30
2019-04-16T13:32:50.912Z,29
2019-04-16T13:34:50.892Z,29
2019-04-16T13:36:52.755Z,29
2019-04-16T13:38:49.974Z,29
2019-04-16T13:40:54.584Z,29
2019-04-16T13:42:50.830Z,29
2019-04-16T13:44:50.192Z,29
2019-04-16T13:46:50.687Z,29
2019-04-16T13:48:50.015Z,29
2019-04-16T13:50:50.173Z,29
2019-04-16T13:52:56.367Z,29
2019-04-16T13:54:50.661Z,29
2019-04-16T13:56:52.236Z,29
2019-04-16T13:58:50.445Z,29
2019-04-16T14:00:50.636Z,29
2019-04-16T14:02:52.560Z,29
2019-04-16T14:04:50.073Z,30
2019-04-16T14:06:50.525Z,30
2019-04-16T14:08:50.697Z,29
2019-04-16T14:10:50.882Z,29
2019-04-16T14:12:50.078Z,29
2019-04-16T14:14:50.777Z,29
2019-04-16T14:16:50.137Z,30
2019-04-16T14:18:50.384Z,30
2019-04-16T14:20:50.609Z,30
2019-04-16T14:22:54.697Z,29
2019-04-16T14:24:50.879Z,29
2019-04-16T14:26:50.171Z,30
2019-04-16T14:28:55.192Z,29
2019-04-16T14:30:49.998Z,29
2019-04-16T14:32:50.351Z,29
2019-04-16T14:34:50.923Z,29
2019-04-16T14:36:50.074Z,29
2019-04-16T14:38:50.054Z,29
2019-04-16T14:40:50.360Z,29
2019-04-16T14:42:59.012Z,29
2019-04-16T14:44:50.163Z,29
2019-04-16T14:46:50.472Z,29
2019-04-16T14:48:50.642Z,29
2019-04-16T14:50:50.940Z,29
2019-04-16T14:52:50.315Z,29
2019-04-16T14:54:50.710Z,28
2019-04-16T14:56:50.256Z,29
2019-04-16T14:58:50.753Z,29
2019-04-16T15:00:50.745Z,29
2019-04-16T15:02:50.530Z,29
2019-04-16T15:04:50.047Z,29
2019-04-16T15:06:54.087Z,29
2019-04-16T15:08:50.292Z,29
2019-04-16T15:10:50.502Z,29
2019-04-16T15:12:50.738Z,29
2019-04-16T15:14:50.375Z,29
2019-04-16T15:16:51.659Z,29
2019-04-16T15:18:49.946Z,29
2019-04-16T15:20:50.136Z,29
2019-04-16T15:22:50.366Z,29
2019-04-16T15:24:50.227Z,29
2019-04-16T15:26:53.972Z,29
2019-04-16T15:28:50.142Z,29
2019-04-16T15:30:50.381Z,29
2019-04-16T15:32:50.202Z,29
2019-04-16T15:34:50.775Z,29
2019-04-16T15:36:55.615Z,29
2019-04-16T15:38:50.813Z,29
2019-04-16T15:40:50.712Z,29
2019-04-16T15:42:49.988Z,29
2019-04-16T15:44:58.306Z,29
2019-04-16T15:46:50.600Z,29
2019-04-16T15:48:51.719Z,29
2019-04-16T15:50:49.969Z,29
2019-04-16T15:52:50.275Z,29
2019-04-16T15:54:50.471Z,29
2019-04-16T15:56:50.905Z,29
2019-04-16T15:58:50.627Z,29
2019-04-16T16:00:50.889Z,29
2019-04-16T16:02:50.057Z,29
2019-04-16T16:04:50.240Z,29
2019-04-16T16:06:53.689Z,29
2019-04-16T16:08:50.891Z,29
2019-04-16T16:10:50.210Z,30
2019-04-16T16:12:54.908Z,30
2019-04-16T16:14:50.133Z,30
2019-04-16T16:16:52.051Z,30
2019-04-16T16:18:50.273Z,30
2019-04-16T16:20:50.582Z,29
2019-04-16T16:22:50.893Z,30
2019-04-16T16:24:50.079Z,30
2019-04-16T16:26:50.491Z,30
2019-04-16T16:28:50.624Z,30
2019-04-16T16:30:50.775Z,30
2019-04-16T16:32:49.883Z,30
2019-04-16T16:34:50.398Z,30
2019-04-16T16:36:50.526Z,30
2019-04-16T16:38:50.623Z,30
2019-04-16T16:40:50.937Z,29
2019-04-16T16:42:50.031Z,29
2019-04-16T16:44:50.135Z,29
2019-04-16T16:46:59.186Z,30
2019-04-16T16:48:50.195Z,30
2019-04-16T16:50:52.277Z,30
2019-04-16T16:52:50.725Z,30
2019-04-16T16:54:50.708Z,30
2019-04-16T16:56:49.958Z,30
2019-04-16T16:58:49.998Z,30
2019-04-16T17:00:50.134Z,30
2019-04-16T17:02:50.199Z,30
2019-04-16T17:04:50.520Z,30
2019-04-16T17:06:50.576Z,30
2019-04-16T17:08:50.671Z,30
2019-04-16T17:10:49.785Z,30
2019-04-16T17:12:49.922Z,30
2019-04-16T17:14:49.956Z,31
2019-04-16T17:16:50.237Z,31
2019-04-16T17:18:50.278Z,28.5
2019-04-16T17:20:50.863Z,28.3
2019-04-16T17:22:49.833Z,28.3
2019-04-16T17:24:49.850Z,28.8
2019-04-16T17:26:51.168Z,28.8
2019-04-16T17:28:50.245Z,29.0
2019-04-16T17:30:50.308Z,30.0
2019-04-16T17:32:50.423Z,30.0
2019-04-16T17:34:49.786Z,29.8
2019-04-16T17:36:50.006Z,30.5
2019-04-16T17:38:49.961Z,30.8
2019-04-16T17:41:00.486Z,30.6
2019-04-16T17:42:50.453Z,30.9
2019-04-16T17:44:50.559Z,30.9
2019-04-16T17:46:51.465Z,31.3
2019-04-16T17:48:50.220Z,31.4
2019-04-16T17:50:51.833Z,32.1
2019-04-16T17:52:49.964Z,31.8
2019-04-16T17:54:50.516Z,32.9
2019-04-16T17:56:56.897Z,33.5
2019-04-16T17:58:49.929Z,33.1
2019-04-16T18:00:50.024Z,32.8
2019-04-16T18:02:50.004Z,33.3
2019-04-16T18:04:50.409Z,33.8
2019-04-16T18:06:50.581Z,33.8
2019-04-16T18:08:49.831Z,34.0
2019-04-16T18:10:50.747Z,34.3
2019-04-16T18:12:57.240Z,35.0
2019-04-16T18:14:50.690Z,34.9
2019-04-16T18:16:56.275Z,35.6
2019-04-16T18:18:50.651Z,34.7
2019-04-16T18:21:00.179Z,35.7
2019-04-16T18:22:50.142Z,36.1
2019-04-16T18:24:50.226Z,36.4
2019-04-16T18:26:50.146Z,35.9
2019-04-16T18:28:50.227Z,36.3
2019-04-16T18:30:50.747Z,37.1
2019-04-16T18:32:49.836Z,37.6
2019-04-16T18:34:50.359Z,36.8
2019-04-16T18:36:50.831Z,38.1
2019-04-16T18:38:49.817Z,37.2
2019-04-16T18:40:49.989Z,36.3
2019-04-16T18:42:50.168Z,36.6
2019-04-16T18:44:56.783Z,37.2
2019-04-16T18:46:50.196Z,36.5
2019-04-16T18:48:50.215Z,37.8
2019-04-16T18:50:50.240Z,38.3
2019-04-16T18:52:50.308Z,38.2
2019-04-16T18:54:50.408Z,38.0
2019-04-16T18:56:50.658Z,38.7
2019-04-16T18:58:50.688Z,38.7
2019-04-16T19:00:50.676Z,39.0
2019-04-16T19:02:50.769Z,38.1
2019-04-16T19:04:51.497Z,38.5
2019-04-16T19:06:50.638Z,39.1
2019-04-16T19:08:50.727Z,39.0
2019-04-16T19:10:49.803Z,38.9
2019-04-16T19:12:50.240Z,38.6
2019-04-16T19:14:50.307Z,39.1
2019-04-16T19:16:50.529Z,39.3
2019-04-16T19:18:50.587Z,38.9
2019-04-16T19:20:53.711Z,38.8
2019-04-16T19:22:51.085Z,39.1
2019-04-16T19:24:50.181Z,39.3
2019-04-16T19:26:50.388Z,39.4
2019-04-16T19:28:50.506Z,39.8
2019-04-16T19:30:50.555Z,39.8
2019-04-16T19:32:50.549Z,39.8
2019-04-16T19:34:49.997Z,39.3
2019-04-16T19:36:50.134Z,39.7
2019-04-16T19:38:50.204Z,39.7
2019-04-16T19:40:52.111Z,39.5
2019-04-16T19:42:50.079Z,40.8
2019-04-16T19:44:50.209Z,40.8
2019-04-16T19:46:54.925Z,40.3
2019-04-16T19:48:50.039Z,39.5
2019-04-16T19:50:50.015Z,41.7
2019-04-16T19:52:50.108Z,40.2
2019-04-16T19:54:50.117Z,41.2
2019-04-16T19:56:52.417Z,40.4
2019-04-16T19:58:50.411Z,40.5
2019-04-16T20:00:50.488Z,40.3
2019-04-16T20:02:50.512Z,40.3
2019-04-16T20:04:51.346Z,41.3
2019-04-16T20:06:50.490Z,40.9
2019-04-16T20:08:50.577Z,40.7
2019-04-16T20:10:50.639Z,40.8
2019-04-16T20:12:50.632Z,40.7
2019-04-16T20:14:50.760Z,40.7
2019-04-16T20:16:49.879Z,40.6
2019-04-16T20:18:51.957Z,40.5
2019-04-16T20:20:51.202Z,40.5
2019-04-16T20:22:50.279Z,40.3
2019-04-16T20:24:50.257Z,39.7
2019-04-16T20:26:50.566Z,40.2
2019-04-16T20:28:50.680Z,40.9
2019-04-16T20:31:04.989Z,40.3
2019-04-16T20:32:50.697Z,40.8
2019-04-16T20:34:50.024Z,40.2
2019-04-16T20:36:57.513Z,40.7
2019-04-16T20:38:50.521Z,40.9
2019-04-16T20:40:50.521Z,40.8
2019-04-16T20:42:50.641Z,40.6
2019-04-16T20:44:50.635Z,41.1
2019-04-16T20:46:49.904Z,42.2
2019-04-16T20:48:49.872Z,42.4
2019-04-16T20:51:00.364Z,42.2
2019-04-16T20:52:50.411Z,41.7
2019-04-16T20:54:50.458Z,41.3
2019-04-16T20:56:55.047Z,41.0
2019-04-16T20:58:50.159Z,41.2
2019-04-16T21:00:50.245Z,41.0
2019-04-16T21:02:52.179Z,40.7
2019-04-16T21:04:50.591Z,41.4
2019-04-16T21:06:49.912Z,41.1
2019-04-16T21:08:49.936Z,41.3
2019-04-16T21:10:50.028Z,41.1
2019-04-16T21:12:50.131Z,40.8
2019-04-16T21:14:55.664Z,41.7
2019-04-16T21:16:49.857Z,41.0
2019-04-16T21:18:49.908Z,41.3
2019-04-16T21:20:52.038Z,41.4
2019-04-16T21:22:50.066Z,41.5
2019-04-16T21:24:50.165Z,41.3
2019-04-16T21:26:52.186Z,41.8
2019-04-16T21:28:50.276Z,41.0
2019-04-16T21:30:50.398Z,41.4
2019-04-16T21:32:50.366Z,41.0
2019-04-16T21:34:49.796Z,41.5
2019-04-16T21:36:50.052Z,40.9
2019-04-16T21:38:50.171Z,40.6
2019-04-16T21:40:57.934Z,40.5
2019-04-16T21:42:50.024Z,41.1
2019-04-16T21:44:50.029Z,41.1
2019-04-16T21:46:58.428Z,40.5
2019-04-16T21:48:50.400Z,40.4
2019-04-16T21:50:54.511Z,39.5
2019-04-16T21:52:57.236Z,40.0
2019-04-16T21:54:50.399Z,40.2
2019-04-16T21:56:50.510Z,39.7
2019-04-16T21:58:50.755Z,40.4
2019-04-16T22:00:49.940Z,40.3
2019-04-16T22:02:50.255Z,40.7
2019-04-16T22:04:49.826Z,39.6
2019-04-16T22:06:53.695Z,40.0
2019-04-16T22:08:49.817Z,40.3
2019-04-16T22:10:49.803Z,39.9
2019-04-16T22:12:49.887Z,40.3
2019-04-16T22:14:56.106Z,40.0
2019-04-16T22:16:50.256Z,39.9
2019-04-16T22:18:50.323Z,40.5
2019-04-16T22:20:50.487Z,40.3
2019-04-16T22:22:50.599Z,41.1
2019-04-16T22:24:56.515Z,40.6
2019-04-16T22:26:50.628Z,40.6
2019-04-16T22:28:50.643Z,40.0
2019-04-16T22:30:52.603Z,40.7
2019-04-16T22:32:50.701Z,40.3
2019-04-16T22:34:50.180Z,40.8
2019-04-16T22:36:50.467Z,40.5
2019-04-16T22:38:50.550Z,40.7
2019-04-16T22:40:56.798Z,40.1
2019-04-16T22:42:49.838Z,40.3
2019-04-16T22:44:49.830Z,40.3
2019-04-16T22:46:50.337Z,41.6
2019-04-16T22:48:50.936Z,42.0
2019-04-16T22:50:49.965Z,40.9
2019-04-16T22:52:50.158Z,41.3
2019-04-16T22:54:53.527Z,41.0
2019-04-16T22:56:49.778Z,40.9
2019-04-16T22:58:50.739Z,40.9
2019-04-16T23:00:49.898Z,41.0
2019-04-16T23:02:49.922Z,41.0
2019-04-16T23:04:50.409Z,42.2
2019-04-16T23:06:50.740Z,41.3
2019-04-16T23:08:50.694Z,41.7
2019-04-16T23:10:52.486Z,41.8
2019-04-16T23:12:50.664Z,41.7
2019-04-16T23:14:50.677Z,41.6
2019-04-16T23:16:49.809Z,42.1
2019-04-16T23:18:50.443Z,41.9
2019-04-16T23:20:50.398Z,42.5
2019-04-16T23:22:50.446Z,42.4
2019-04-16T23:24:56.699Z,43.9
2019-04-16T23:26:49.894Z,41.8
2019-04-16T23:28:49.926Z,43.6
2019-04-16T23:30:52.224Z,42.4
2019-04-16T23:32:50.210Z,46.2
2019-04-16T23:34:50.740Z,43.9
2019-04-16T23:36:49.977Z,44.2
2019-04-16T23:38:50.043Z,43.5
2019-04-16T23:40:50.078Z,45.1
2019-04-16T23:42:51.334Z,43.6
2019-04-16T23:44:50.347Z,44.2
2019-04-16T23:46:50.553Z,43.7
2019-04-16T23:48:50.548Z,44.0
2019-04-16T23:50:50.648Z,44.1
2019-04-16T23:52:49.863Z,43.7
2019-04-16T23:54:49.904Z,45.6
2019-04-16T23:56:54.180Z,46.1
2019-04-16T23:58:50.292Z,45.2
